sensor_id;sensor_type;location;lat;lon;timestamp;temperature;humidity
5556;DHT22;2801;50.972;7.856;2022-10-26T00:01:11;7.10;99.90
5556;DHT22;2801;50.972;7.856;2022-10-26T00:03:42;7.20;99.90
5556;DHT22;2801;50.972;7.856;2022-10-26T00:06:13;7.20;99.90
5556;DHT22;2801;50.972;7.856;2022-10-26T00:08:42;7.30;99.90
5556;DHT22;2801;50.972;7.856;2022-10-26T00:11:10;7.30;99.90
5556;DHT22;2801;50.972;7.856;2022-10-26T00:13:38;7.30;99.90
5556;DHT22;2801;50.972;7.856;2022-10-26T00:16:12;7.50;99.90
5556;DHT22;2801;50.972;7.856;2022-10-26T00:18:44;7.70;99.90
5556;DHT22;2801;50.972;7.856;2022-10-26T00:21:12;7.80;99.90
5556;DHT22;2801;50.972;7.856;2022-10-26T00:23:39;7.90;99.90
5556;DHT22;2801;50.972;7.856;2022-10-26T00:26:08;8.00;99.90
5556;DHT22;2801;50.972;7.856;2022-10-26T00:28:35;8.10;99.90
5556;DHT22;2801;50.972;7.856;2022-10-26T00:31:05;8.20;99.90
5556;DHT22;2801;50.972;7.856;2022-10-26T00:33:34;8.20;99.90
5556;DHT22;2801;50.972;7.856;2022-10-26T00:36:01;8.20;99.90
5556;DHT22;2801;50.972;7.856;2022-10-26T00:38:29;8.30;99.90
5556;DHT22;2801;50.972;7.856;2022-10-26T00:40:56;8.30;99.90
5556;DHT22;2801;50.972;7.856;2022-10-26T00:45:56;8.40;99.90
5556;DHT22;2801;50.972;7.856;2022-10-26T00:48:34;8.40;99.90
5556;DHT22;2801;50.972;7.856;2022-10-26T00:51:08;8.40;99.90
5556;DHT22;2801;50.972;7.856;2022-10-26T00:53:40;8.40;99.90
5556;DHT22;2801;50.972;7.856;2022-10-26T00:56:08;8.40;99.90
5556;DHT22;2801;50.972;7.856;2022-10-26T00:58:35;8.40;99.90
5556;DHT22;2801;50.972;7.856;2022-10-26T01:01:03;8.50;99.90
5556;DHT22;2801;50.972;7.856;2022-10-26T01:03:31;8.50;99.90
5556;DHT22;2801;50.972;7.856;2022-10-26T01:05:58;8.50;99.90
5556;DHT22;2801;50.972;7.856;2022-10-26T01:08:26;8.50;99.90
5556;DHT22;2801;50.972;7.856;2022-10-26T01:10:56;8.60;99.90
5556;DHT22;2801;50.972;7.856;2022-10-26T01:13:26;8.70;99.90
5556;DHT22;2801;50.972;7.856;2022-10-26T01:16:00;8.80;99.90
5556;DHT22;2801;50.972;7.856;2022-10-26T01:24:19;8.70;99.90
5556;DHT22;2801;50.972;7.856;2022-10-26T01:30:37;8.80;99.90
5556;DHT22;2801;50.972;7.856;2022-10-26T01:33:29;8.80;99.90
5556;DHT22;2801;50.972;7.856;2022-10-26T01:39:22;8.90;99.90
5556;DHT22;2801;50.972;7.856;2022-10-26T01:41:58;8.90;99.90
5556;DHT22;2801;50.972;7.856;2022-10-26T01:44:31;8.90;99.90
5556;DHT22;2801;50.972;7.856;2022-10-26T01:47:06;8.90;99.90
5556;DHT22;2801;50.972;7.856;2022-10-26T01:49:42;8.80;99.90
5556;DHT22;2801;50.972;7.856;2022-10-26T01:52:12;8.80;99.90
5556;DHT22;2801;50.972;7.856;2022-10-26T01:54:39;8.90;99.90
5556;DHT22;2801;50.972;7.856;2022-10-26T01:57:08;8.90;99.90
5556;DHT22;2801;50.972;7.856;2022-10-26T02:05:43;9.10;99.90
5556;DHT22;2801;50.972;7.856;2022-10-26T02:08:43;9.20;99.90
5556;DHT22;2801;50.972;7.856;2022-10-26T02:11:44;9.20;99.90
5556;DHT22;2801;50.972;7.856;2022-10-26T02:17:21;9.30;99.90
5556;DHT22;2801;50.972;7.856;2022-10-26T02:20:03;9.30;99.90
5556;DHT22;2801;50.972;7.856;2022-10-26T02:22:40;9.30;99.90
5556;DHT22;2801;50.972;7.856;2022-10-26T02:25:26;9.20;99.90
5556;DHT22;2801;50.972;7.856;2022-10-26T02:28:00;9.20;99.90
5556;DHT22;2801;50.972;7.856;2022-10-26T02:30:30;9.20;99.90
5556;DHT22;2801;50.972;7.856;2022-10-26T02:32:59;9.30;99.90
5556;DHT22;2801;50.972;7.856;2022-10-26T02:35:32;9.30;99.90
5556;DHT22;2801;50.972;7.856;2022-10-26T02:38:06;9.40;99.90
5556;DHT22;2801;50.972;7.856;2022-10-26T02:40:36;9.50;99.90
5556;DHT22;2801;50.972;7.856;2022-10-26T02:43:08;9.50;99.90
5556;DHT22;2801;50.972;7.856;2022-10-26T02:45:43;9.50;99.90
5556;DHT22;2801;50.972;7.856;2022-10-26T02:48:15;9.60;99.90
5556;DHT22;2801;50.972;7.856;2022-10-26T02:50:59;9.60;99.90
5556;DHT22;2801;50.972;7.856;2022-10-26T02:56:26;9.70;99.90
5556;DHT22;2801;50.972;7.856;2022-10-26T02:59:02;9.70;99.90
5556;DHT22;2801;50.972;7.856;2022-10-26T03:01:32;9.70;99.90
5556;DHT22;2801;50.972;7.856;2022-10-26T03:04:00;9.70;99.90
5556;DHT22;2801;50.972;7.856;2022-10-26T03:06:27;9.70;99.90
5556;DHT22;2801;50.972;7.856;2022-10-26T03:08:54;9.80;99.90
5556;DHT22;2801;50.972;7.856;2022-10-26T03:11:20;9.90;99.90
5556;DHT22;2801;50.972;7.856;2022-10-26T03:13:47;9.90;99.90
5556;DHT22;2801;50.972;7.856;2022-10-26T03:16:14;9.90;99.90
5556;DHT22;2801;50.972;7.856;2022-10-26T03:18:41;9.90;99.90
5556;DHT22;2801;50.972;7.856;2022-10-26T03:21:08;10.00;99.90
5556;DHT22;2801;50.972;7.856;2022-10-26T03:23:35;10.00;99.90
5556;DHT22;2801;50.972;7.856;2022-10-26T03:26:01;10.10;99.90
5556;DHT22;2801;50.972;7.856;2022-10-26T03:28:28;10.10;99.90
5556;DHT22;2801;50.972;7.856;2022-10-26T03:30:55;10.10;99.90
5556;DHT22;2801;50.972;7.856;2022-10-26T03:33:22;10.00;99.90
5556;DHT22;2801;50.972;7.856;2022-10-26T03:35:54;10.00;99.90
5556;DHT22;2801;50.972;7.856;2022-10-26T03:38:24;10.00;99.90
5556;DHT22;2801;50.972;7.856;2022-10-26T03:40:51;10.10;99.90
5556;DHT22;2801;50.972;7.856;2022-10-26T03:43:18;10.00;99.90
5556;DHT22;2801;50.972;7.856;2022-10-26T03:45:45;10.00;99.90
5556;DHT22;2801;50.972;7.856;2022-10-26T03:48:12;10.00;99.90
5556;DHT22;2801;50.972;7.856;2022-10-26T03:50:39;10.10;99.90
5556;DHT22;2801;50.972;7.856;2022-10-26T03:53:09;10.10;99.90
5556;DHT22;2801;50.972;7.856;2022-10-26T03:55:36;10.10;99.90
5556;DHT22;2801;50.972;7.856;2022-10-26T03:58:03;10.10;99.90
5556;DHT22;2801;50.972;7.856;2022-10-26T04:00:30;10.10;99.90
5556;DHT22;2801;50.972;7.856;2022-10-26T04:02:58;10.00;99.90
5556;DHT22;2801;50.972;7.856;2022-10-26T04:05:27;10.10;99.90
5556;DHT22;2801;50.972;7.856;2022-10-26T04:07:56;10.00;99.90
5556;DHT22;2801;50.972;7.856;2022-10-26T04:10:26;10.00;99.90
5556;DHT22;2801;50.972;7.856;2022-10-26T04:12:54;10.00;99.90
5556;DHT22;2801;50.972;7.856;2022-10-26T04:15:21;10.00;99.90
5556;DHT22;2801;50.972;7.856;2022-10-26T04:17:57;10.10;99.90
5556;DHT22;2801;50.972;7.856;2022-10-26T04:20:27;10.10;99.90
5556;DHT22;2801;50.972;7.856;2022-10-26T04:23:03;10.10;99.90
5556;DHT22;2801;50.972;7.856;2022-10-26T04:25:32;10.10;99.90
5556;DHT22;2801;50.972;7.856;2022-10-26T04:28:00;10.10;99.90
5556;DHT22;2801;50.972;7.856;2022-10-26T04:30:28;10.10;99.90
5556;DHT22;2801;50.972;7.856;2022-10-26T04:32:56;10.00;99.90
5556;DHT22;2801;50.972;7.856;2022-10-26T04:35:23;10.00;99.90
5556;DHT22;2801;50.972;7.856;2022-10-26T04:37:50;10.00;99.90
5556;DHT22;2801;50.972;7.856;2022-10-26T04:40:17;10.00;99.90
5556;DHT22;2801;50.972;7.856;2022-10-26T04:42:45;10.00;99.90
5556;DHT22;2801;50.972;7.856;2022-10-26T04:45:14;10.00;99.90
5556;DHT22;2801;50.972;7.856;2022-10-26T04:47:42;10.00;99.90
5556;DHT22;2801;50.972;7.856;2022-10-26T04:50:10;10.00;99.90
5556;DHT22;2801;50.972;7.856;2022-10-26T04:52:38;10.10;99.90
5556;DHT22;2801;50.972;7.856;2022-10-26T04:55:06;10.10;99.90
5556;DHT22;2801;50.972;7.856;2022-10-26T04:57:34;10.10;99.90
5556;DHT22;2801;50.972;7.856;2022-10-26T05:00:03;10.10;99.90
5556;DHT22;2801;50.972;7.856;2022-10-26T05:02:30;10.10;99.90
5556;DHT22;2801;50.972;7.856;2022-10-26T05:04:57;10.10;99.90
5556;DHT22;2801;50.972;7.856;2022-10-26T05:07:24;10.20;99.90
5556;DHT22;2801;50.972;7.856;2022-10-26T05:09:51;10.20;99.90
5556;DHT22;2801;50.972;7.856;2022-10-26T05:12:18;10.30;99.90
5556;DHT22;2801;50.972;7.856;2022-10-26T05:14:45;10.30;99.90
5556;DHT22;2801;50.972;7.856;2022-10-26T05:17:11;10.30;99.90
5556;DHT22;2801;50.972;7.856;2022-10-26T05:19:38;10.40;99.90
5556;DHT22;2801;50.972;7.856;2022-10-26T05:22:05;10.40;99.90
5556;DHT22;2801;50.972;7.856;2022-10-26T05:24:32;10.50;99.90
5556;DHT22;2801;50.972;7.856;2022-10-26T05:26:59;10.50;99.90
5556;DHT22;2801;50.972;7.856;2022-10-26T05:29:26;10.60;99.90
5556;DHT22;2801;50.972;7.856;2022-10-26T05:31:53;10.60;99.90
5556;DHT22;2801;50.972;7.856;2022-10-26T05:34:20;10.70;99.90
5556;DHT22;2801;50.972;7.856;2022-10-26T05:36:46;10.70;99.90
5556;DHT22;2801;50.972;7.856;2022-10-26T05:39:13;10.70;99.90
5556;DHT22;2801;50.972;7.856;2022-10-26T05:41:40;10.70;99.90
5556;DHT22;2801;50.972;7.856;2022-10-26T05:44:07;10.70;99.90
5556;DHT22;2801;50.972;7.856;2022-10-26T05:46:33;10.70;99.90
5556;DHT22;2801;50.972;7.856;2022-10-26T05:49:00;10.80;99.90
5556;DHT22;2801;50.972;7.856;2022-10-26T05:51:27;10.70;99.90
5556;DHT22;2801;50.972;7.856;2022-10-26T05:53:54;10.70;99.90
5556;DHT22;2801;50.972;7.856;2022-10-26T05:59:10;10.70;99.90
5556;DHT22;2801;50.972;7.856;2022-10-26T06:05:04;10.80;99.90
5556;DHT22;2801;50.972;7.856;2022-10-26T06:07:36;10.90;99.90
5556;DHT22;2801;50.972;7.856;2022-10-26T06:10:04;10.90;99.90
5556;DHT22;2801;50.972;7.856;2022-10-26T06:12:31;10.90;99.90
5556;DHT22;2801;50.972;7.856;2022-10-26T06:14:58;11.00;99.90
5556;DHT22;2801;50.972;7.856;2022-10-26T06:32:16;11.00;99.90
5556;DHT22;2801;50.972;7.856;2022-10-26T06:34:45;11.00;99.90
5556;DHT22;2801;50.972;7.856;2022-10-26T06:37:16;11.10;99.90
5556;DHT22;2801;50.972;7.856;2022-10-26T06:39:45;11.20;99.90
5556;DHT22;2801;50.972;7.856;2022-10-26T06:42:19;11.30;99.90
5556;DHT22;2801;50.972;7.856;2022-10-26T06:44:47;11.30;99.90
5556;DHT22;2801;50.972;7.856;2022-10-26T06:47:38;11.30;99.90
5556;DHT22;2801;50.972;7.856;2022-10-26T06:55:47;11.50;99.90
5556;DHT22;2801;50.972;7.856;2022-10-26T06:58:20;11.60;99.90
5556;DHT22;2801;50.972;7.856;2022-10-26T07:00:52;11.60;99.90
5556;DHT22;2801;50.972;7.856;2022-10-26T07:03:20;11.70;99.90
5556;DHT22;2801;50.972;7.856;2022-10-26T07:05:48;11.80;99.90
5556;DHT22;2801;50.972;7.856;2022-10-26T07:08:15;11.80;99.90
5556;DHT22;2801;50.972;7.856;2022-10-26T07:10:42;11.80;99.90
5556;DHT22;2801;50.972;7.856;2022-10-26T07:13:10;12.00;99.90
5556;DHT22;2801;50.972;7.856;2022-10-26T07:15:38;11.90;99.90
5556;DHT22;2801;50.972;7.856;2022-10-26T07:18:06;12.00;99.90
5556;DHT22;2801;50.972;7.856;2022-10-26T07:20:38;12.10;99.90
5556;DHT22;2801;50.972;7.856;2022-10-26T07:23:08;12.10;99.90
5556;DHT22;2801;50.972;7.856;2022-10-26T07:25:38;12.10;99.90
5556;DHT22;2801;50.972;7.856;2022-10-26T07:28:08;12.20;99.90
5556;DHT22;2801;50.972;7.856;2022-10-26T07:30:37;12.20;99.90
5556;DHT22;2801;50.972;7.856;2022-10-26T07:33:10;12.20;99.90
5556;DHT22;2801;50.972;7.856;2022-10-26T07:35:39;12.10;99.90
5556;DHT22;2801;50.972;7.856;2022-10-26T07:38:07;12.10;99.90
5556;DHT22;2801;50.972;7.856;2022-10-26T07:40:35;12.00;99.90
5556;DHT22;2801;50.972;7.856;2022-10-26T07:43:03;12.00;99.90
5556;DHT22;2801;50.972;7.856;2022-10-26T07:45:30;11.90;99.90
5556;DHT22;2801;50.972;7.856;2022-10-26T07:47:57;11.90;99.90
5556;DHT22;2801;50.972;7.856;2022-10-26T07:50:24;11.90;99.90
5556;DHT22;2801;50.972;7.856;2022-10-26T07:52:51;11.90;99.90
5556;DHT22;2801;50.972;7.856;2022-10-26T07:55:19;11.90;99.90
5556;DHT22;2801;50.972;7.856;2022-10-26T07:57:45;11.90;99.90
5556;DHT22;2801;50.972;7.856;2022-10-26T08:00:20;12.00;99.90
5556;DHT22;2801;50.972;7.856;2022-10-26T08:02:47;12.10;99.90
5556;DHT22;2801;50.972;7.856;2022-10-26T08:05:14;12.10;99.90
5556;DHT22;2801;50.972;7.856;2022-10-26T08:07:42;12.20;99.90
5556;DHT22;2801;50.972;7.856;2022-10-26T08:10:11;12.30;99.90
5556;DHT22;2801;50.972;7.856;2022-10-26T08:12:39;12.30;99.90
5556;DHT22;2801;50.972;7.856;2022-10-26T08:15:07;12.50;99.90
5556;DHT22;2801;50.972;7.856;2022-10-26T08:17:34;12.40;99.90
5556;DHT22;2801;50.972;7.856;2022-10-26T08:20:01;12.50;99.90
5556;DHT22;2801;50.972;7.856;2022-10-26T08:22:29;12.50;99.90
5556;DHT22;2801;50.972;7.856;2022-10-26T08:24:56;12.60;99.90
5556;DHT22;2801;50.972;7.856;2022-10-26T08:27:23;12.50;99.90
5556;DHT22;2801;50.972;7.856;2022-10-26T08:29:50;12.60;99.90
5556;DHT22;2801;50.972;7.856;2022-10-26T08:32:17;12.60;99.90
5556;DHT22;2801;50.972;7.856;2022-10-26T08:34:43;12.70;99.90
5556;DHT22;2801;50.972;7.856;2022-10-26T08:37:10;12.80;99.90
5556;DHT22;2801;50.972;7.856;2022-10-26T08:39:37;12.90;99.90
5556;DHT22;2801;50.972;7.856;2022-10-26T08:42:24;13.00;99.90
5556;DHT22;2801;50.972;7.856;2022-10-26T08:45:04;13.00;99.90
5556;DHT22;2801;50.972;7.856;2022-10-26T08:47:42;13.10;99.90
5556;DHT22;2801;50.972;7.856;2022-10-26T08:50:34;13.30;99.90
5556;DHT22;2801;50.972;7.856;2022-10-26T08:55:47;13.40;99.90
5556;DHT22;2801;50.972;7.856;2022-10-26T08:58:22;14.00;99.90
5556;DHT22;2801;50.972;7.856;2022-10-26T09:00:54;15.00;99.90
5556;DHT22;2801;50.972;7.856;2022-10-26T09:03:21;15.60;99.90
5556;DHT22;2801;50.972;7.856;2022-10-26T09:11:45;14.90;99.90
5556;DHT22;2801;50.972;7.856;2022-10-26T09:22:26;14.30;99.90
5556;DHT22;2801;50.972;7.856;2022-10-26T09:25:15;14.30;99.90
5556;DHT22;2801;50.972;7.856;2022-10-26T09:27:50;14.30;99.90
5556;DHT22;2801;50.972;7.856;2022-10-26T09:30:27;14.40;99.90
5556;DHT22;2801;50.972;7.856;2022-10-26T09:33:01;14.60;99.90
5556;DHT22;2801;50.972;7.856;2022-10-26T09:35:44;14.80;99.90
5556;DHT22;2801;50.972;7.856;2022-10-26T09:38:20;14.80;99.90
5556;DHT22;2801;50.972;7.856;2022-10-26T09:46:45;15.10;99.90
5556;DHT22;2801;50.972;7.856;2022-10-26T09:49:19;15.20;99.90
5556;DHT22;2801;50.972;7.856;2022-10-26T09:51:55;15.30;99.90
5556;DHT22;2801;50.972;7.856;2022-10-26T09:54:22;15.40;99.90
5556;DHT22;2801;50.972;7.856;2022-10-26T09:56:58;15.50;99.90
5556;DHT22;2801;50.972;7.856;2022-10-26T09:59:29;15.60;99.90
5556;DHT22;2801;50.972;7.856;2022-10-26T10:02:00;15.70;99.90
5556;DHT22;2801;50.972;7.856;2022-10-26T10:04:45;15.80;99.90
5556;DHT22;2801;50.972;7.856;2022-10-26T10:07:17;15.80;99.90
5556;DHT22;2801;50.972;7.856;2022-10-26T10:09:43;15.80;99.90
5556;DHT22;2801;50.972;7.856;2022-10-26T10:12:19;15.80;99.90
5556;DHT22;2801;50.972;7.856;2022-10-26T10:14:57;15.80;99.90
5556;DHT22;2801;50.972;7.856;2022-10-26T10:17:25;15.90;99.90
5556;DHT22;2801;50.972;7.856;2022-10-26T10:19:52;15.90;99.90
5556;DHT22;2801;50.972;7.856;2022-10-26T10:22:23;15.90;99.90
5556;DHT22;2801;50.972;7.856;2022-10-26T10:25:01;16.00;99.90
5556;DHT22;2801;50.972;7.856;2022-10-26T10:27:30;16.00;99.90
5556;DHT22;2801;50.972;7.856;2022-10-26T10:30:22;16.10;99.90
5556;DHT22;2801;50.972;7.856;2022-10-26T10:33:06;16.10;99.90
5556;DHT22;2801;50.972;7.856;2022-10-26T10:35:39;16.10;99.90
5556;DHT22;2801;50.972;7.856;2022-10-26T10:38:17;16.00;99.90
5556;DHT22;2801;50.972;7.856;2022-10-26T10:40:52;16.10;99.90
5556;DHT22;2801;50.972;7.856;2022-10-26T10:43:22;16.10;99.90
5556;DHT22;2801;50.972;7.856;2022-10-26T10:45:52;16.10;99.90
5556;DHT22;2801;50.972;7.856;2022-10-26T10:48:27;16.10;99.90
5556;DHT22;2801;50.972;7.856;2022-10-26T10:50:59;16.10;99.90
5556;DHT22;2801;50.972;7.856;2022-10-26T10:53:52;16.20;99.90
5556;DHT22;2801;50.972;7.856;2022-10-26T11:11:26;16.60;99.90
5556;DHT22;2801;50.972;7.856;2022-10-26T11:17:06;16.70;99.90
5556;DHT22;2801;50.972;7.856;2022-10-26T11:22:41;16.70;99.90
5556;DHT22;2801;50.972;7.856;2022-10-26T11:25:26;16.70;99.90
5556;DHT22;2801;50.972;7.856;2022-10-26T11:28:10;16.70;99.90
5556;DHT22;2801;50.972;7.856;2022-10-26T11:30:46;16.80;99.90
5556;DHT22;2801;50.972;7.856;2022-10-26T11:33:31;16.80;99.90
5556;DHT22;2801;50.972;7.856;2022-10-26T11:36:09;16.80;99.90
5556;DHT22;2801;50.972;7.856;2022-10-26T11:38:52;16.90;99.90
5556;DHT22;2801;50.972;7.856;2022-10-26T11:41:44;17.10;99.90
5556;DHT22;2801;50.972;7.856;2022-10-26T11:50:29;17.70;99.90
5556;DHT22;2801;50.972;7.856;2022-10-26T11:53:00;17.70;99.90
5556;DHT22;2801;50.972;7.856;2022-10-26T11:55:51;17.60;99.90
5556;DHT22;2801;50.972;7.856;2022-10-26T11:58:25;17.50;99.90
5556;DHT22;2801;50.972;7.856;2022-10-26T12:01:07;17.50;99.90
5556;DHT22;2801;50.972;7.856;2022-10-26T12:03:42;17.40;99.90
5556;DHT22;2801;50.972;7.856;2022-10-26T12:06:19;17.40;99.90
5556;DHT22;2801;50.972;7.856;2022-10-26T12:14:23;17.40;99.90
5556;DHT22;2801;50.972;7.856;2022-10-26T12:22:17;17.40;99.90
5556;DHT22;2801;50.972;7.856;2022-10-26T12:27:55;17.40;99.90
5556;DHT22;2801;50.972;7.856;2022-10-26T12:30:34;17.40;99.90
5556;DHT22;2801;50.972;7.856;2022-10-26T12:33:26;17.50;99.90
5556;DHT22;2801;50.972;7.856;2022-10-26T12:35:54;17.60;99.90
5556;DHT22;2801;50.972;7.856;2022-10-26T12:59:48;18.30;99.90
5556;DHT22;2801;50.972;7.856;2022-10-26T13:09:07;18.50;99.90
5556;DHT22;2801;50.972;7.856;2022-10-26T13:11:47;18.50;99.90
5556;DHT22;2801;50.972;7.856;2022-10-26T13:14:56;18.50;99.90
5556;DHT22;2801;50.972;7.856;2022-10-26T13:17:26;18.40;99.90
5556;DHT22;2801;50.972;7.856;2022-10-26T13:20:01;18.40;99.90
5556;DHT22;2801;50.972;7.856;2022-10-26T13:22:31;18.40;99.90
5556;DHT22;2801;50.972;7.856;2022-10-26T13:25:04;18.40;99.90
5556;DHT22;2801;50.972;7.856;2022-10-26T13:30:21;18.50;99.90
5556;DHT22;2801;50.972;7.856;2022-10-26T13:33:15;18.50;99.90
5556;DHT22;2801;50.972;7.856;2022-10-26T13:35:46;18.40;99.90
5556;DHT22;2801;50.972;7.856;2022-10-26T13:38:18;18.40;99.90
5556;DHT22;2801;50.972;7.856;2022-10-26T13:40:48;18.40;99.90
5556;DHT22;2801;50.972;7.856;2022-10-26T13:43:22;18.40;99.90
5556;DHT22;2801;50.972;7.856;2022-10-26T13:45:55;18.40;99.90
5556;DHT22;2801;50.972;7.856;2022-10-26T13:48:40;18.30;99.90
5556;DHT22;2801;50.972;7.856;2022-10-26T13:51:19;18.30;99.90
5556;DHT22;2801;50.972;7.856;2022-10-26T13:54:01;18.30;99.90
5556;DHT22;2801;50.972;7.856;2022-10-26T13:56:44;18.40;99.90
5556;DHT22;2801;50.972;7.856;2022-10-26T13:59:22;18.40;99.90
5556;DHT22;2801;50.972;7.856;2022-10-26T14:02:15;18.40;99.90
5556;DHT22;2801;50.972;7.856;2022-10-26T14:05:00;18.40;99.90
5556;DHT22;2801;50.972;7.856;2022-10-26T14:07:51;18.40;99.90
5556;DHT22;2801;50.972;7.856;2022-10-26T14:12:55;18.40;99.90
5556;DHT22;2801;50.972;7.856;2022-10-26T14:15:26;18.50;99.90
5556;DHT22;2801;50.972;7.856;2022-10-26T14:17:59;18.50;99.90
5556;DHT22;2801;50.972;7.856;2022-10-26T14:20:29;18.60;99.90
5556;DHT22;2801;50.972;7.856;2022-10-26T14:22:57;18.60;99.90
5556;DHT22;2801;50.972;7.856;2022-10-26T14:25:26;18.60;99.90
5556;DHT22;2801;50.972;7.856;2022-10-26T14:28:22;18.60;99.90
5556;DHT22;2801;50.972;7.856;2022-10-26T14:30:50;18.60;99.90
5556;DHT22;2801;50.972;7.856;2022-10-26T14:33:22;18.50;99.90
5556;DHT22;2801;50.972;7.856;2022-10-26T14:35:53;18.50;99.90
5556;DHT22;2801;50.972;7.856;2022-10-26T14:38:25;18.40;99.90
5556;DHT22;2801;50.972;7.856;2022-10-26T14:40:56;18.30;99.90
5556;DHT22;2801;50.972;7.856;2022-10-26T14:43:24;18.20;99.90
5556;DHT22;2801;50.972;7.856;2022-10-26T14:45:53;18.20;99.90
5556;DHT22;2801;50.972;7.856;2022-10-26T14:48:26;18.20;99.90
5556;DHT22;2801;50.972;7.856;2022-10-26T14:51:14;18.20;99.90
5556;DHT22;2801;50.972;7.856;2022-10-26T14:53:54;18.10;99.90
5556;DHT22;2801;50.972;7.856;2022-10-26T15:02:10;17.90;99.90
5556;DHT22;2801;50.972;7.856;2022-10-26T15:04:59;17.90;99.90
5556;DHT22;2801;50.972;7.856;2022-10-26T15:07:37;17.80;99.90
5556;DHT22;2801;50.972;7.856;2022-10-26T15:13:27;17.60;99.90
5556;DHT22;2801;50.972;7.856;2022-10-26T15:16:22;17.50;99.90
5556;DHT22;2801;50.972;7.856;2022-10-26T15:18:57;17.40;99.90
5556;DHT22;2801;50.972;7.856;2022-10-26T15:21:42;17.30;99.90
5556;DHT22;2801;50.972;7.856;2022-10-26T15:26:51;17.10;99.90
5556;DHT22;2801;50.972;7.856;2022-10-26T15:29:44;17.00;99.90
5556;DHT22;2801;50.972;7.856;2022-10-26T15:32:28;16.90;99.90
5556;DHT22;2801;50.972;7.856;2022-10-26T15:37:46;16.80;99.90
5556;DHT22;2801;50.972;7.856;2022-10-26T15:40:14;16.70;99.90
5556;DHT22;2801;50.972;7.856;2022-10-26T15:42:42;16.70;99.90
5556;DHT22;2801;50.972;7.856;2022-10-26T15:45:22;16.70;99.90
5556;DHT22;2801;50.972;7.856;2022-10-26T15:47:52;16.50;99.90
5556;DHT22;2801;50.972;7.856;2022-10-26T15:50:24;16.40;99.90
5556;DHT22;2801;50.972;7.856;2022-10-26T15:53:08;16.40;99.90
5556;DHT22;2801;50.972;7.856;2022-10-26T15:55:43;16.30;99.90
5556;DHT22;2801;50.972;7.856;2022-10-26T15:58:10;16.10;99.90
5556;DHT22;2801;50.972;7.856;2022-10-26T16:00:37;16.00;99.90
5556;DHT22;2801;50.972;7.856;2022-10-26T16:03:04;15.90;99.90
5556;DHT22;2801;50.972;7.856;2022-10-26T16:05:30;15.80;99.90
5556;DHT22;2801;50.972;7.856;2022-10-26T16:08:02;15.70;99.90
5556;DHT22;2801;50.972;7.856;2022-10-26T16:10:29;15.50;99.90
5556;DHT22;2801;50.972;7.856;2022-10-26T16:12:56;15.40;99.90
5556;DHT22;2801;50.972;7.856;2022-10-26T16:15:24;15.20;99.90
5556;DHT22;2801;50.972;7.856;2022-10-26T16:17:51;15.10;99.90
5556;DHT22;2801;50.972;7.856;2022-10-26T16:20:21;15.00;99.90
5556;DHT22;2801;50.972;7.856;2022-10-26T16:22:50;14.90;99.90
5556;DHT22;2801;50.972;7.856;2022-10-26T16:25:22;14.80;99.90
5556;DHT22;2801;50.972;7.856;2022-10-26T16:27:53;14.70;99.90
5556;DHT22;2801;50.972;7.856;2022-10-26T16:30:21;14.60;99.90
5556;DHT22;2801;50.972;7.856;2022-10-26T16:32:53;14.50;99.90
5556;DHT22;2801;50.972;7.856;2022-10-26T16:35:20;14.50;99.90
5556;DHT22;2801;50.972;7.856;2022-10-26T16:37:47;14.40;99.90
5556;DHT22;2801;50.972;7.856;2022-10-26T16:40:14;14.30;99.90
5556;DHT22;2801;50.972;7.856;2022-10-26T16:42:40;14.20;99.90
5556;DHT22;2801;50.972;7.856;2022-10-26T16:45:13;14.20;99.90
5556;DHT22;2801;50.972;7.856;2022-10-26T16:47:41;14.10;99.90
5556;DHT22;2801;50.972;7.856;2022-10-26T16:50:09;14.00;99.90
5556;DHT22;2801;50.972;7.856;2022-10-26T16:52:38;13.90;99.90
5556;DHT22;2801;50.972;7.856;2022-10-26T16:55:06;13.80;99.90
5556;DHT22;2801;50.972;7.856;2022-10-26T16:57:36;13.70;99.90
5556;DHT22;2801;50.972;7.856;2022-10-26T17:00:05;13.60;99.90
5556;DHT22;2801;50.972;7.856;2022-10-26T17:02:32;13.50;99.90
5556;DHT22;2801;50.972;7.856;2022-10-26T17:04:59;13.50;99.90
5556;DHT22;2801;50.972;7.856;2022-10-26T17:07:32;13.40;99.90
5556;DHT22;2801;50.972;7.856;2022-10-26T17:09:59;13.30;99.90
5556;DHT22;2801;50.972;7.856;2022-10-26T17:12:26;13.20;99.90
5556;DHT22;2801;50.972;7.856;2022-10-26T17:14:57;13.10;99.90
5556;DHT22;2801;50.972;7.856;2022-10-26T17:17:26;13.00;99.90
5556;DHT22;2801;50.972;7.856;2022-10-26T17:19:52;12.90;99.90
5556;DHT22;2801;50.972;7.856;2022-10-26T17:22:19;12.90;99.90
5556;DHT22;2801;50.972;7.856;2022-10-26T17:24:46;12.80;99.90
5556;DHT22;2801;50.972;7.856;2022-10-26T17:27:13;12.80;99.90
5556;DHT22;2801;50.972;7.856;2022-10-26T17:29:41;12.70;99.90
5556;DHT22;2801;50.972;7.856;2022-10-26T17:32:08;12.60;99.90
5556;DHT22;2801;50.972;7.856;2022-10-26T17:34:35;12.60;99.90
5556;DHT22;2801;50.972;7.856;2022-10-26T17:37:02;12.50;99.90
5556;DHT22;2801;50.972;7.856;2022-10-26T17:39:29;12.40;99.90
5556;DHT22;2801;50.972;7.856;2022-10-26T17:41:56;12.40;99.90
5556;DHT22;2801;50.972;7.856;2022-10-26T17:44:23;12.30;99.90
5556;DHT22;2801;50.972;7.856;2022-10-26T17:46:49;12.20;99.90
5556;DHT22;2801;50.972;7.856;2022-10-26T17:49:16;12.10;99.90
5556;DHT22;2801;50.972;7.856;2022-10-26T17:51:43;12.00;99.90
5556;DHT22;2801;50.972;7.856;2022-10-26T17:54:10;12.10;99.90
5556;DHT22;2801;50.972;7.856;2022-10-26T17:56:37;12.00;99.90
5556;DHT22;2801;50.972;7.856;2022-10-26T17:59:08;11.90;99.90
5556;DHT22;2801;50.972;7.856;2022-10-26T18:01:37;11.80;99.90
5556;DHT22;2801;50.972;7.856;2022-10-26T18:04:04;11.80;99.90
5556;DHT22;2801;50.972;7.856;2022-10-26T18:06:31;11.70;99.90
5556;DHT22;2801;50.972;7.856;2022-10-26T18:08:57;11.60;99.90
5556;DHT22;2801;50.972;7.856;2022-10-26T18:11:25;11.70;99.90
5556;DHT22;2801;50.972;7.856;2022-10-26T18:13:54;11.60;99.90
5556;DHT22;2801;50.972;7.856;2022-10-26T18:16:22;11.50;99.90
5556;DHT22;2801;50.972;7.856;2022-10-26T18:19:02;11.60;99.90
5556;DHT22;2801;50.972;7.856;2022-10-26T18:21:34;11.50;99.90
5556;DHT22;2801;50.972;7.856;2022-10-26T18:24:08;11.50;99.90
5556;DHT22;2801;50.972;7.856;2022-10-26T18:26:35;11.50;99.90
5556;DHT22;2801;50.972;7.856;2022-10-26T18:29:03;11.60;99.90
5556;DHT22;2801;50.972;7.856;2022-10-26T18:31:31;11.60;99.90
5556;DHT22;2801;50.972;7.856;2022-10-26T18:34:02;11.70;99.90
5556;DHT22;2801;50.972;7.856;2022-10-26T18:36:30;11.70;99.90
5556;DHT22;2801;50.972;7.856;2022-10-26T18:38:57;11.70;99.90
5556;DHT22;2801;50.972;7.856;2022-10-26T18:41:25;11.70;99.90
5556;DHT22;2801;50.972;7.856;2022-10-26T18:43:53;11.70;99.90
5556;DHT22;2801;50.972;7.856;2022-10-26T18:46:28;11.70;99.90
5556;DHT22;2801;50.972;7.856;2022-10-26T18:48:58;11.70;99.90
5556;DHT22;2801;50.972;7.856;2022-10-26T18:51:31;11.80;99.90
5556;DHT22;2801;50.972;7.856;2022-10-26T18:54:00;11.70;99.90
5556;DHT22;2801;50.972;7.856;2022-10-26T18:56:27;11.70;99.90
5556;DHT22;2801;50.972;7.856;2022-10-26T18:58:56;11.60;99.90
5556;DHT22;2801;50.972;7.856;2022-10-26T19:01:26;11.60;99.90
5556;DHT22;2801;50.972;7.856;2022-10-26T19:04:00;11.50;99.90
5556;DHT22;2801;50.972;7.856;2022-10-26T19:06:30;11.40;99.90
5556;DHT22;2801;50.972;7.856;2022-10-26T19:08:59;11.30;99.90
5556;DHT22;2801;50.972;7.856;2022-10-26T19:11:27;11.20;99.90
5556;DHT22;2801;50.972;7.856;2022-10-26T19:13:55;11.10;99.90
5556;DHT22;2801;50.972;7.856;2022-10-26T19:16:24;11.10;99.90
5556;DHT22;2801;50.972;7.856;2022-10-26T19:19:14;11.10;99.90